sensor_id;sensor_type;location;lat;lon;timestamp;pressure;altitude;pressure_sealevel;temperature;humidity
73316;BME280;61545;53.726;-0.444;2022-11-12T00:02:14;1023.2;;;11.4;100.0
73316;BME280;61545;53.726;-0.444;2022-11-12T00:07:14;1023.3;;;11.4;100.0
73316;BME280;61545;53.726;-0.444;2022-11-12T00:12:14;1023.4;;;11.2;100.0
73316;BME280;61545;53.726;-0.444;2022-11-12T00:17:14;1023.3;;;11.3;100.0
73316;BME280;61545;53.726;-0.444;2022-11-12T00:22:14;1023.3;;;11.2;100.0
73316;BME280;61545;53.726;-0.444;2022-11-12T00:27:14;1023.3;;;11.2;100.0
73316;BME280;61545;53.726;-0.444;2022-11-12T00:32:14;1023.3;;;11.2;100.0
73316;BME280;61545;53.726;-0.444;2022-11-12T00:37:14;1023.4;;;11.1;100.0
73316;BME280;61545;53.726;-0.444;2022-11-12T00:42:14;1023.4;;;11.2;100.0
73316;BME280;61545;53.726;-0.444;2022-11-12T00:47:14;1023.5;;;11.2;100.0
73316;BME280;61545;53.726;-0.444;2022-11-12T00:52:14;1023.5;;;11.2;100.0
73316;BME280;61545;53.726;-0.444;2022-11-12T00:57:14;1023.4;;;11.1;100.0
73316;BME280;61545;53.726;-0.444;2022-11-12T01:02:14;1023.4;;;11.1;100.0
73316;BME280;61545;53.726;-0.444;2022-11-12T01:07:14;1023.4;;;11.2;100.0
73316;BME280;61545;53.726;-0.444;2022-11-12T01:12:14;1023.5;;;11.0;100.0
73316;BME280;61545;53.726;-0.444;2022-11-12T01:17:14;1023.5;;;11.0;100.0
73316;BME280;61545;53.726;-0.444;2022-11-12T01:22:14;1023.6;;;10.8;100.0
73316;BME280;61545;53.726;-0.444;2022-11-12T01:27:14;1023.6;;;10.8;100.0
73316;BME280;61545;53.726;-0.444;2022-11-12T01:32:14;1023.6;;;10.8;100.0
73316;BME280;61545;53.726;-0.444;2022-11-12T01:37:14;1023.6;;;10.8;100.0
73316;BME280;61545;53.726;-0.444;2022-11-12T01:42:14;1023.5;;;10.7;100.0
73316;BME280;61545;53.726;-0.444;2022-11-12T01:47:17;1023.6;;;10.7;100.0
73316;BME280;61545;53.726;-0.444;2022-11-12T01:52:16;1023.6;;;10.7;100.0
73316;BME280;61545;53.726;-0.444;2022-11-12T01:57:14;1023.6;;;10.7;100.0
73316;BME280;61545;53.726;-0.444;2022-11-12T02:02:14;1023.6;;;10.7;100.0
73316;BME280;61545;53.726;-0.444;2022-11-12T02:07:14;1023.6;;;10.7;100.0
73316;BME280;61545;53.726;-0.444;2022-11-12T02:12:14;1023.5;;;10.7;100.0
73316;BME280;61545;53.726;-0.444;2022-11-12T02:17:14;1023.5;;;10.7;100.0
73316;BME280;61545;53.726;-0.444;2022-11-12T02:22:14;1023.6;;;10.6;100.0
73316;BME280;61545;53.726;-0.444;2022-11-12T02:27:14;1023.4;;;10.7;100.0
73316;BME280;61545;53.726;-0.444;2022-11-12T02:32:14;1023.4;;;10.5;100.0
73316;BME280;61545;53.726;-0.444;2022-11-12T02:37:14;1023.3;;;10.6;100.0
73316;BME280;61545;53.726;-0.444;2022-11-12T02:42:14;1023.3;;;10.6;100.0
73316;BME280;61545;53.726;-0.444;2022-11-12T02:47:14;1023.3;;;10.5;100.0
73316;BME280;61545;53.726;-0.444;2022-11-12T02:52:14;1023.4;;;10.4;100.0
73316;BME280;61545;53.726;-0.444;2022-11-12T02:57:14;1023.4;;;10.4;100.0
73316;BME280;61545;53.726;-0.444;2022-11-12T03:02:14;1023.3;;;10.4;100.0
73316;BME280;61545;53.726;-0.444;2022-11-12T03:07:14;1023.3;;;10.4;100.0
73316;BME280;61545;53.726;-0.444;2022-11-12T03:12:14;1023.3;;;10.4;100.0
73316;BME280;61545;53.726;-0.444;2022-11-12T03:17:14;1023.3;;;10.5;100.0
73316;BME280;61545;53.726;-0.444;2022-11-12T03:22:14;1023.2;;;10.4;100.0
73316;BME280;61545;53.726;-0.444;2022-11-12T03:27:14;1023.2;;;10.2;100.0
73316;BME280;61545;53.726;-0.444;2022-11-12T03:32:14;1023.2;;;10.4;100.0
73316;BME280;61545;53.726;-0.444;2022-11-12T03:37:14;1023.2;;;10.3;100.0
73316;BME280;61545;53.726;-0.444;2022-11-12T03:42:14;1023.3;;;10.3;100.0
73316;BME280;61545;53.726;-0.444;2022-11-12T03:47:14;1023.3;;;10.2;100.0
73316;BME280;61545;53.726;-0.444;2022-11-12T03:52:14;1023.2;;;10.4;100.0
73316;BME280;61545;53.726;-0.444;2022-11-12T03:57:14;1023.2;;;10.2;100.0
73316;BME280;61545;53.726;-0.444;2022-11-12T04:02:14;1023.2;;;10.2;100.0
73316;BME280;61545;53.726;-0.444;2022-11-12T04:07:14;1023.2;;;10.2;100.0
73316;BME280;61545;53.726;-0.444;2022-11-12T04:12:14;1023.2;;;10.2;100.0
73316;BME280;61545;53.726;-0.444;2022-11-12T04:17:14;1023.1;;;10.0;100.0
73316;BME280;61545;53.726;-0.444;2022-11-12T04:22:14;1023.2;;;10.1;100.0
73316;BME280;61545;53.726;-0.444;2022-11-12T04:27:15;1023.1;;;9.9;100.0
73316;BME280;61545;53.726;-0.444;2022-11-12T04:32:14;1023.1;;;9.9;100.0
73316;BME280;61545;53.726;-0.444;2022-11-12T04:37:14;1023.1;;;9.9;100.0
73316;BME280;61545;53.726;-0.444;2022-11-12T04:42:14;1023.1;;;9.9;100.0
73316;BME280;61545;53.726;-0.444;2022-11-12T04:47:14;1023.0;;;9.8;100.0
73316;BME280;61545;53.726;-0.444;2022-11-12T04:52:14;1023.0;;;9.8;100.0
73316;BME280;61545;53.726;-0.444;2022-11-12T04:57:14;1023.1;;;9.7;100.0
73316;BME280;61545;53.726;-0.444;2022-11-12T05:02:14;1023.0;;;9.6;100.0
73316;BME280;61545;53.726;-0.444;2022-11-12T05:07:14;1023.0;;;9.5;100.0
73316;BME280;61545;53.726;-0.444;2022-11-12T05:12:14;1023.0;;;9.5;100.0
73316;BME280;61545;53.726;-0.444;2022-11-12T05:17:14;1023.0;;;9.6;100.0
73316;BME280;61545;53.726;-0.444;2022-11-12T05:22:14;1022.9;;;9.6;100.0
73316;BME280;61545;53.726;-0.444;2022-11-12T05:27:15;1023.0;;;9.7;100.0
73316;BME280;61545;53.726;-0.444;2022-11-12T05:32:14;1022.9;;;9.7;100.0
73316;BME280;61545;53.726;-0.444;2022-11-12T05:37:14;1023.1;;;9.5;100.0
73316;BME280;61545;53.726;-0.444;2022-11-12T05:42:14;1023.0;;;9.5;100.0
73316;BME280;61545;53.726;-0.444;2022-11-12T05:47:14;1023.0;;;9.4;100.0
73316;BME280;61545;53.726;-0.444;2022-11-12T05:52:14;1023.0;;;9.4;100.0
73316;BME280;61545;53.726;-0.444;2022-11-12T05:57:14;1023.1;;;9.7;100.0
73316;BME280;61545;53.726;-0.444;2022-11-12T06:02:14;1023.1;;;9.4;100.0
73316;BME280;61545;53.726;-0.444;2022-11-12T06:07:14;1023.1;;;9.4;100.0
73316;BME280;61545;53.726;-0.444;2022-11-12T06:12:14;1023.1;;;9.4;100.0
73316;BME280;61545;53.726;-0.444;2022-11-12T06:17:14;1023.1;;;9.1;100.0
73316;BME280;61545;53.726;-0.444;2022-11-12T06:22:14;1023.1;;;9.2;100.0
73316;BME280;61545;53.726;-0.444;2022-11-12T06:27:14;1023.1;;;9.2;100.0
73316;BME280;61545;53.726;-0.444;2022-11-12T06:32:14;1023.1;;;9.4;100.0
73316;BME280;61545;53.726;-0.444;2022-11-12T06:37:14;1023.1;;;9.5;100.0
73316;BME280;61545;53.726;-0.444;2022-11-12T06:42:14;1023.2;;;9.4;100.0
73316;BME280;61545;53.726;-0.444;2022-11-12T06:47:14;1023.3;;;9.3;100.0
73316;BME280;61545;53.726;-0.444;2022-11-12T06:52:14;1023.2;;;9.4;100.0
73316;BME280;61545;53.726;-0.444;2022-11-12T06:57:14;1023.3;;;9.4;100.0
73316;BME280;61545;53.726;-0.444;2022-11-12T07:02:14;1023.4;;;9.4;100.0
73316;BME280;61545;53.726;-0.444;2022-11-12T07:07:14;1023.5;;;9.2;100.0
73316;BME280;61545;53.726;-0.444;2022-11-12T07:12:14;1023.5;;;8.9;100.0
73316;BME280;61545;53.726;-0.444;2022-11-12T07:17:14;1023.5;;;9.0;100.0
73316;BME280;61545;53.726;-0.444;2022-11-12T07:22:14;1023.5;;;9.0;100.0
73316;BME280;61545;53.726;-0.444;2022-11-12T07:27:14;1023.5;;;9.0;100.0
73316;BME280;61545;53.726;-0.444;2022-11-12T07:32:14;1023.4;;;9.0;100.0
73316;BME280;61545;53.726;-0.444;2022-11-12T07:37:14;1023.5;;;9.1;100.0
73316;BME280;61545;53.726;-0.444;2022-11-12T07:42:14;1023.6;;;9.2;100.0
73316;BME280;61545;53.726;-0.444;2022-11-12T07:47:14;1023.5;;;9.3;100.0
73316;BME280;61545;53.726;-0.444;2022-11-12T07:52:14;1023.4;;;9.2;100.0
73316;BME280;61545;53.726;-0.444;2022-11-12T07:57:14;1023.5;;;9.2;100.0
73316;BME280;61545;53.726;-0.444;2022-11-12T08:02:14;1023.5;;;9.3;100.0
73316;BME280;61545;53.726;-0.444;2022-11-12T08:07:14;1023.5;;;9.2;100.0
73316;BME280;61545;53.726;-0.444;2022-11-12T08:12:14;1023.5;;;9.3;100.0
73316;BME280;61545;53.726;-0.444;2022-11-12T08:17:14;1023.5;;;9.4;100.0
73316;BME280;61545;53.726;-0.444;2022-11-12T08:22:14;1023.5;;;9.4;100.0
73316;BME280;61545;53.726;-0.444;2022-11-12T08:27:14;1023.4;;;9.4;100.0
73316;BME280;61545;53.726;-0.444;2022-11-12T08:32:14;1023.4;;;9.4;100.0
73316;BME280;61545;53.726;-0.444;2022-11-12T08:37:14;1023.4;;;9.5;100.0
73316;BME280;61545;53.726;-0.444;2022-11-12T08:42:14;1023.4;;;9.5;100.0
73316;BME280;61545;53.726;-0.444;2022-11-12T08:47:14;1023.5;;;9.7;100.0
73316;BME280;61545;53.726;-0.444;2022-11-12T08:52:14;1023.5;;;9.5;100.0
73316;BME280;61545;53.726;-0.444;2022-11-12T08:57:14;1023.5;;;9.5;100.0
73316;BME280;61545;53.726;-0.444;2022-11-12T09:02:14;1023.5;;;9.7;100.0
73316;BME280;61545;53.726;-0.444;2022-11-12T09:07:14;1023.5;;;9.6;100.0
73316;BME280;61545;53.726;-0.444;2022-11-12T09:12:14;1023.5;;;9.6;100.0
73316;BME280;61545;53.726;-0.444;2022-11-12T09:17:14;1023.5;;;9.6;100.0
73316;BME280;61545;53.726;-0.444;2022-11-12T09:22:14;1023.5;;;9.7;100.0
73316;BME280;61545;53.726;-0.444;2022-11-12T09:27:14;1023.6;;;9.8;100.0
73316;BME280;61545;53.726;-0.444;2022-11-12T09:32:14;1023.6;;;9.7;100.0
73316;BME280;61545;53.726;-0.444;2022-11-12T09:37:14;1023.5;;;9.8;100.0
73316;BME280;61545;53.726;-0.444;2022-11-12T09:42:16;1023.6;;;9.9;100.0
73316;BME280;61545;53.726;-0.444;2022-11-12T09:47:16;1023.5;;;9.9;100.0
73316;BME280;61545;53.726;-0.444;2022-11-12T09:52:16;1023.6;;;10.0;100.0
73316;BME280;61545;53.726;-0.444;2022-11-12T09:57:14;1023.6;;;10.0;100.0
73316;BME280;61545;53.726;-0.444;2022-11-12T10:02:21;1023.5;;;10.1;100.0
73316;BME280;61545;53.726;-0.444;2022-11-12T10:07:18;1023.5;;;10.2;100.0
73316;BME280;61545;53.726;-0.444;2022-11-12T10:12:17;1023.5;;;10.3;100.0
73316;BME280;61545;53.726;-0.444;2022-11-12T10:17:18;1023.6;;;10.5;100.0
73316;BME280;61545;53.726;-0.444;2022-11-12T10:22:23;1023.6;;;10.5;100.0
73316;BME280;61545;53.726;-0.444;2022-11-12T10:27:16;1023.7;;;10.7;100.0
73316;BME280;61545;53.726;-0.444;2022-11-12T10:32:14;1023.7;;;10.9;100.0
73316;BME280;61545;53.726;-0.444;2022-11-12T10:37:17;1023.7;;;10.9;100.0
73316;BME280;61545;53.726;-0.444;2022-11-12T10:42:15;1023.6;;;11.0;100.0
73316;BME280;61545;53.726;-0.444;2022-11-12T10:47:17;1023.6;;;10.9;100.0
73316;BME280;61545;53.726;-0.444;2022-11-12T10:52:20;1023.6;;;11.0;100.0
73316;BME280;61545;53.726;-0.444;2022-11-12T10:57:19;1023.6;;;10.9;100.0
73316;BME280;61545;53.726;-0.444;2022-11-12T11:02:16;1023.4;;;10.9;100.0
73316;BME280;61545;53.726;-0.444;2022-11-12T11:07:18;1023.3;;;11.0;100.0
73316;BME280;61545;53.726;-0.444;2022-11-12T11:12:21;1023.3;;;11.2;100.0
73316;BME280;61545;53.726;-0.444;2022-11-12T11:17:15;1023.2;;;11.2;100.0
73316;BME280;61545;53.726;-0.444;2022-11-12T11:22:22;1023.3;;;11.4;100.0
73316;BME280;61545;53.726;-0.444;2022-11-12T11:27:24;1023.2;;;11.6;100.0
73316;BME280;61545;53.726;-0.444;2022-11-12T11:32:22;1023.2;;;11.7;100.0
73316;BME280;61545;53.726;-0.444;2022-11-12T11:37:21;1023.2;;;11.7;100.0
73316;BME280;61545;53.726;-0.444;2022-11-12T11:42:24;1023.2;;;11.4;100.0
73316;BME280;61545;53.726;-0.444;2022-11-12T11:47:20;1023.1;;;11.2;100.0
73316;BME280;61545;53.726;-0.444;2022-11-12T11:52:39;1023.0;;;11.2;100.0
73316;BME280;61545;53.726;-0.444;2022-11-12T11:57:15;1023.0;;;11.4;100.0
73316;BME280;61545;53.726;-0.444;2022-11-12T12:02:23;1022.9;;;11.3;100.0
73316;BME280;61545;53.726;-0.444;2022-11-12T12:07:20;1022.9;;;11.2;100.0
73316;BME280;61545;53.726;-0.444;2022-11-12T12:12:20;1022.8;;;11.3;100.0
73316;BME280;61545;53.726;-0.444;2022-11-12T12:17:20;1022.8;;;11.3;100.0
73316;BME280;61545;53.726;-0.444;2022-11-12T12:22:16;1022.8;;;11.2;100.0
73316;BME280;61545;53.726;-0.444;2022-11-12T12:27:16;1022.7;;;11.2;100.0
73316;BME280;61545;53.726;-0.444;2022-11-12T12:32:16;1022.6;;;11.3;100.0
73316;BME280;61545;53.726;-0.444;2022-11-12T12:37:20;1022.5;;;11.4;100.0
73316;BME280;61545;53.726;-0.444;2022-11-12T12:42:16;1022.5;;;11.6;100.0
73316;BME280;61545;53.726;-0.444;2022-11-12T12:47:14;1022.4;;;11.7;100.0
73316;BME280;61545;53.726;-0.444;2022-11-12T12:52:14;1022.4;;;11.7;100.0
73316;BME280;61545;53.726;-0.444;2022-11-12T12:57:26;1022.4;;;11.7;100.0
73316;BME280;61545;53.726;-0.444;2022-11-12T13:02:18;1022.4;;;11.6;100.0
73316;BME280;61545;53.726;-0.444;2022-11-12T13:07:14;1022.2;;;11.5;100.0
73316;BME280;61545;53.726;-0.444;2022-11-12T13:12:15;1022.3;;;11.7;100.0
73316;BME280;61545;53.726;-0.444;2022-11-12T13:17:40;1022.3;;;11.6;100.0
73316;BME280;61545;53.726;-0.444;2022-11-12T13:22:48;1022.3;;;11.7;100.0
73316;BME280;61545;53.726;-0.444;2022-11-12T13:27:14;1022.3;;;11.7;100.0
73316;BME280;61545;53.726;-0.444;2022-11-12T13:32:32;1022.2;;;11.7;100.0
73316;BME280;61545;53.726;-0.444;2022-11-12T13:37:17;1022.3;;;11.7;100.0
73316;BME280;61545;53.726;-0.444;2022-11-12T13:42:15;1022.2;;;11.8;100.0
73316;BME280;61545;53.726;-0.444;2022-11-12T13:47:16;1022.3;;;11.8;100.0
73316;BME280;61545;53.726;-0.444;2022-11-12T13:52:14;1022.3;;;11.7;100.0
73316;BME280;61545;53.726;-0.444;2022-11-12T13:57:31;1022.2;;;11.7;100.0
73316;BME280;61545;53.726;-0.444;2022-11-12T14:02:19;1022.3;;;11.7;100.0
73316;BME280;61545;53.726;-0.444;2022-11-12T14:07:24;1022.2;;;11.7;100.0
73316;BME280;61545;53.726;-0.444;2022-11-12T14:12:22;1022.2;;;11.8;100.0
73316;BME280;61545;53.726;-0.444;2022-11-12T14:17:19;1022.3;;;11.8;100.0
73316;BME280;61545;53.726;-0.444;2022-11-12T14:22:16;1022.1;;;11.8;100.0
73316;BME280;61545;53.726;-0.444;2022-11-12T14:27:31;1022.2;;;11.8;100.0
73316;BME280;61545;53.726;-0.444;2022-11-12T14:32:14;1022.1;;;11.8;100.0
73316;BME280;61545;53.726;-0.444;2022-11-12T14:37:31;1022.1;;;11.7;100.0
73316;BME280;61545;53.726;-0.444;2022-11-12T14:42:14;1022.0;;;11.7;100.0
73316;BME280;61545;53.726;-0.444;2022-11-12T14:47:15;1022.1;;;11.7;100.0
73316;BME280;61545;53.726;-0.444;2022-11-12T14:52:15;1022.1;;;11.7;100.0
73316;BME280;61545;53.726;-0.444;2022-11-12T14:57:17;1022.1;;;11.7;100.0
73316;BME280;61545;53.726;-0.444;2022-11-12T15:02:16;1022.1;;;11.7;100.0
73316;BME280;61545;53.726;-0.444;2022-11-12T15:07:23;1022.1;;;11.8;100.0
73316;BME280;61545;53.726;-0.444;2022-11-12T15:12:19;1022.1;;;11.7;100.0
73316;BME280;61545;53.726;-0.444;2022-11-12T15:17:24;1022.1;;;11.6;100.0
73316;BME280;61545;53.726;-0.444;2022-11-12T15:22:18;1022.0;;;11.5;100.0
73316;BME280;61545;53.726;-0.444;2022-11-12T15:27:46;1021.9;;;11.5;100.0
73316;BME280;61545;53.726;-0.444;2022-11-12T15:32:31;1022.0;;;11.4;100.0
73316;BME280;61545;53.726;-0.444;2022-11-12T15:37:20;1022.0;;;11.5;100.0
73316;BME280;61545;53.726;-0.444;2022-11-12T15:42:15;1022.0;;;11.5;100.0
73316;BME280;61545;53.726;-0.444;2022-11-12T15:47:18;1021.9;;;11.5;100.0
73316;BME280;61545;53.726;-0.444;2022-11-12T15:52:14;1022.0;;;11.5;100.0
73316;BME280;61545;53.726;-0.444;2022-11-12T15:57:15;1022.0;;;11.4;100.0
73316;BME280;61545;53.726;-0.444;2022-11-12T16:02:14;1022.0;;;11.5;100.0
73316;BME280;61545;53.726;-0.444;2022-11-12T16:07:14;1021.9;;;11.4;100.0
73316;BME280;61545;53.726;-0.444;2022-11-12T16:12:14;1021.8;;;11.2;100.0
73316;BME280;61545;53.726;-0.444;2022-11-12T16:17:15;1021.8;;;11.1;100.0
73316;BME280;61545;53.726;-0.444;2022-11-12T16:22:14;1021.7;;;11.1;100.0
73316;BME280;61545;53.726;-0.444;2022-11-12T16:27:14;1021.7;;;11.0;100.0
73316;BME280;61545;53.726;-0.444;2022-11-12T16:32:14;1021.7;;;10.9;100.0
73316;BME280;61545;53.726;-0.444;2022-11-12T16:37:14;1021.7;;;10.9;100.0
73316;BME280;61545;53.726;-0.444;2022-11-12T16:42:14;1021.8;;;10.9;100.0
73316;BME280;61545;53.726;-0.444;2022-11-12T16:47:14;1021.8;;;10.8;100.0
73316;BME280;61545;53.726;-0.444;2022-11-12T16:52:14;1021.8;;;10.7;100.0
73316;BME280;61545;53.726;-0.444;2022-11-12T16:57:14;1021.7;;;10.7;100.0
73316;BME280;61545;53.726;-0.444;2022-11-12T17:02:14;1021.8;;;10.5;100.0
73316;BME280;61545;53.726;-0.444;2022-11-12T17:07:14;1021.7;;;10.6;100.0
73316;BME280;61545;53.726;-0.444;2022-11-12T17:12:14;1021.8;;;10.5;100.0
73316;BME280;61545;53.726;-0.444;2022-11-12T17:17:14;1021.8;;;10.5;100.0
73316;BME280;61545;53.726;-0.444;2022-11-12T17:22:14;1021.8;;;10.5;100.0
73316;BME280;61545;53.726;-0.444;2022-11-12T17:27:14;1021.8;;;10.5;100.0
73316;BME280;61545;53.726;-0.444;2022-11-12T17:32:14;1021.7;;;10.4;100.0
73316;BME280;61545;53.726;-0.444;2022-11-12T17:37:14;1021.7;;;10.2;100.0
73316;BME280;61545;53.726;-0.444;2022-11-12T17:42:14;1021.7;;;10.3;100.0
73316;BME280;61545;53.726;-0.444;2022-11-12T17:47:14;1021.7;;;10.3;100.0
73316;BME280;61545;53.726;-0.444;2022-11-12T17:52:14;1021.6;;;10.3;100.0
73316;BME280;61545;53.726;-0.444;2022-11-12T17:57:14;1021.7;;;10.3;100.0
73316;BME280;61545;53.726;-0.444;2022-11-12T18:02:14;1021.7;;;10.3;100.0
73316;BME280;61545;53.726;-0.444;2022-11-12T18:07:14;1021.6;;;10.1;100.0
73316;BME280;61545;53.726;-0.444;2022-11-12T18:12:14;1021.5;;;10.2;100.0
73316;BME280;61545;53.726;-0.444;2022-11-12T18:17:14;1021.5;;;10.2;100.0
73316;BME280;61545;53.726;-0.444;2022-11-12T18:22:14;1021.6;;;10.2;100.0
73316;BME280;61545;53.726;-0.444;2022-11-12T18:27:14;1021.5;;;10.1;100.0
73316;BME280;61545;53.726;-0.444;2022-11-12T18:32:14;1021.6;;;10.0;100.0
73316;BME280;61545;53.726;-0.444;2022-11-12T18:37:14;1021.6;;;10.0;100.0
73316;BME280;61545;53.726;-0.444;2022-11-12T18:42:14;1021.5;;;10.0;100.0
73316;BME280;61545;53.726;-0.444;2022-11-12T18:47:14;1021.5;;;10.0;100.0
73316;BME280;61545;53.726;-0.444;2022-11-12T18:52:14;1021.4;;;9.9;100.0
73316;BME280;61545;53.726;-0.444;2022-11-12T18:57:14;1021.3;;;9.9;100.0
73316;BME280;61545;53.726;-0.444;2022-11-12T19:02:14;1021.3;;;9.9;100.0
73316;BME280;61545;53.726;-0.444;2022-11-12T19:07:14;1021.3;;;9.9;100.0
73316;BME280;61545;53.726;-0.444;2022-11-12T19:12:14;1021.3;;;9.7;100.0
73316;BME280;61545;53.726;-0.444;2022-11-12T19:17:14;1021.4;;;9.7;100.0
73316;BME280;61545;53.726;-0.444;2022-11-12T19:22:14;1021.4;;;9.7;100.0
73316;BME280;61545;53.726;-0.444;2022-11-12T19:27:14;1021.3;;;9.7;100.0
73316;BME280;61545;53.726;-0.444;2022-11-12T19:32:14;1021.4;;;9.8;100.0
73316;BME280;61545;53.726;-0.444;2022-11-12T19:37:14;1021.3;;;9.7;100.0
73316;BME280;61545;53.726;-0.444;2022-11-12T19:42:14;1021.2;;;9.7;100.0
73316;BME280;61545;53.726;-0.444;2022-11-12T19:47:14;1021.3;;;9.6;100.0
73316;BME280;61545;53.726;-0.444;2022-11-12T19:52:14;1021.4;;;9.5;100.0
73316;BME280;61545;53.726;-0.444;2022-11-12T19:57:14;1021.4;;;9.4;100.0
73316;BME280;61545;53.726;-0.444;2022-11-12T20:02:14;1021.3;;;9.2;100.0
73316;BME280;61545;53.726;-0.444;2022-11-12T20:07:14;1021.2;;;9.3;100.0
73316;BME280;61545;53.726;-0.444;2022-11-12T20:12:14;1021.2;;;9.4;100.0
73316;BME280;61545;53.726;-0.444;2022-11-12T20:17:14;1021.1;;;9.5;100.0
73316;BME280;61545;53.726;-0.444;2022-11-12T20:22:14;1021.2;;;9.6;100.0
73316;BME280;61545;53.726;-0.444;2022-11-12T20:27:14;1021.0;;;9.7;100.0
73316;BME280;61545;53.726;-0.444;2022-11-12T20:32:14;1020.9;;;9.7;100.0
73316;BME280;61545;53.726;-0.444;2022-11-12T20:37:14;1020.9;;;9.7;100.0
73316;BME280;61545;53.726;-0.444;2022-11-12T20:42:14;1020.8;;;9.8;100.0
73316;BME280;61545;53.726;-0.444;2022-11-12T20:47:14;1020.7;;;9.7;100.0
73316;BME280;61545;53.726;-0.444;2022-11-12T20:52:14;1020.8;;;9.8;100.0
73316;BME280;61545;53.726;-0.444;2022-11-12T20:57:14;1020.9;;;9.8;100.0
73316;BME280;61545;53.726;-0.444;2022-11-12T21:02:14;1020.9;;;9.9;100.0
73316;BME280;61545;53.726;-0.444;2022-11-12T21:07:14;1020.9;;;9.8;100.0
73316;BME280;61545;53.726;-0.444;2022-11-12T21:12:14;1020.9;;;9.6;100.0
73316;BME280;61545;53.726;-0.444;2022-11-12T21:17:14;1021.0;;;9.7;100.0
73316;BME280;61545;53.726;-0.444;2022-11-12T21:22:14;1021.0;;;9.7;100.0
73316;BME280;61545;53.726;-0.444;2022-11-12T21:27:14;1021.1;;;9.5;100.0
73316;BME280;61545;53.726;-0.444;2022-11-12T21:32:14;1021.0;;;9.7;100.0
73316;BME280;61545;53.726;-0.444;2022-11-12T21:37:14;1021.0;;;9.6;100.0
73316;BME280;61545;53.726;-0.444;2022-11-12T21:42:14;1021.1;;;9.5;100.0
73316;BME280;61545;53.726;-0.444;2022-11-12T21:47:14;1021.0;;;9.5;100.0
73316;BME280;61545;53.726;-0.444;2022-11-12T21:52:14;1021.0;;;9.5;100.0
73316;BME280;61545;53.726;-0.444;2022-11-12T21:57:14;1021.0;;;9.5;100.0
73316;BME280;61545;53.726;-0.444;2022-11-12T22:02:14;1020.9;;;9.5;100.0
73316;BME280;61545;53.726;-0.444;2022-11-12T22:07:14;1020.8;;;9.5;100.0
73316;BME280;61545;53.726;-0.444;2022-11-12T22:12:14;1020.9;;;9.4;100.0
73316;BME280;61545;53.726;-0.444;2022-11-12T22:17:14;1020.8;;;9.4;100.0
73316;BME280;61545;53.726;-0.444;2022-11-12T22:22:14;1020.7;;;9.4;100.0
73316;BME280;61545;53.726;-0.444;2022-11-12T22:27:14;1020.8;;;9.5;100.0
73316;BME280;61545;53.726;-0.444;2022-11-12T22:32:14;1020.8;;;9.4;100.0
73316;BME280;61545;53.726;-0.444;2022-11-12T22:37:14;1020.8;;;9.5;100.0
73316;BME280;61545;53.726;-0.444;2022-11-12T22:42:14;1020.9;;;9.4;100.0
73316;BME280;61545;53.726;-0.444;2022-11-12T22:47:14;1020.8;;;9.4;100.0
73316;BME280;61545;53.726;-0.444;2022-11-12T22:52:14;1020.8;;;9.2;100.0
73316;BME280;61545;53.726;-0.444;2022-11-12T22:57:14;1020.9;;;9.2;100.0
73316;BME280;61545;53.726;-0.444;2022-11-12T23:02:14;1020.9;;;9.0;100.0
73316;BME280;61545;53.726;-0.444;2022-11-12T23:07:14;1021.0;;;9.2;100.0
73316;BME280;61545;53.726;-0.444;2022-11-12T23:12:14;1020.8;;;9.0;100.0
73316;BME280;61545;53.726;-0.444;2022-11-12T23:17:14;1020.8;;;9.2;100.0
73316;BME280;61545;53.726;-0.444;2022-11-12T23:22:15;1020.9;;;9.2;100.0
73316;BME280;61545;53.726;-0.444;2022-11-12T23:27:14;1020.8;;;9.3;100.0
73316;BME280;61545;53.726;-0.444;2022-11-12T23:32:14;1020.9;;;9.1;100.0
73316;BME280;61545;53.726;-0.444;2022-11-12T23:37:14;1020.8;;;9.1;100.0
73316;BME280;61545;53.726;-0.444;2022-11-12T23:42:14;1020.9;;;9.2;100.0
73316;BME280;61545;53.726;-0.444;2022-11-12T23:47:14;1020.9;;;9.3;100.0
73316;BME280;61545;53.726;-0.444;2022-11-12T23:52:14;1020.9;;;9.4;100.0
73316;BME280;61545;53.726;-0.444;2022-11-12T23:57:14;1020.9;;;9.5;100.0
